createdAt,value
2023-02-15T00:01:50.388Z,100342.97
2023-02-15T00:04:21.313Z,100335.34
2023-02-15T00:06:48.756Z,100332.72
2023-02-15T00:09:15.876Z,100329.44
2023-02-15T00:11:52.448Z,100327.59
2023-02-15T00:14:24.518Z,100330.19
2023-02-15T00:16:53.280Z,100338.72
2023-02-15T00:19:21.758Z,100348.13
2023-02-15T00:21:49.744Z,100343.00
2023-02-15T00:24:19.222Z,100341.56
2023-02-15T00:26:46.965Z,100341.53
2023-02-15T00:29:15.567Z,100339.91
2023-02-15T00:31:43.241Z,100341.38
2023-02-15T00:34:20.673Z,100335.34
2023-02-15T00:36:48.407Z,100335.47
2023-02-15T00:39:16.004Z,100336.41
2023-02-15T00:41:44.669Z,100329.47
2023-02-15T00:44:13.169Z,100334.63
2023-02-15T00:46:40.639Z,100326.88
2023-02-15T00:49:10.061Z,100328.53
2023-02-15T00:51:38.885Z,100326.22
2023-02-15T00:54:06.585Z,100328.84
2023-02-15T00:56:33.764Z,100324.53
2023-02-15T00:59:01.207Z,100327.16
2023-02-15T01:01:28.389Z,100327.12
2023-02-15T01:03:55.544Z,100330.50
2023-02-15T01:06:22.917Z,100332.50
2023-02-15T01:08:50.069Z,100327.53
2023-02-15T01:11:23.264Z,100324.00
2023-02-15T01:13:59.061Z,100329.84
2023-02-15T01:16:28.407Z,100328.09
2023-02-15T01:18:55.977Z,100333.09
2023-02-15T01:21:24.511Z,100327.03
2023-02-15T01:23:51.698Z,100320.03
2023-02-15T01:26:19.081Z,100320.91
2023-02-15T01:28:46.467Z,100316.41
2023-02-15T01:31:16.189Z,100313.19
2023-02-15T01:33:44.947Z,100312.41
2023-02-15T01:36:11.970Z,100308.00
2023-02-15T01:38:40.835Z,100305.47
2023-02-15T01:41:28.103Z,100309.94
2023-02-15T01:44:00.389Z,100304.72
2023-02-15T01:46:50.462Z,100302.06
2023-02-15T01:49:19.783Z,100299.34
2023-02-15T01:51:48.742Z,100296.12
2023-02-15T01:54:40.352Z,100289.72
2023-02-15T01:57:11.862Z,100294.06
2023-02-15T01:59:40.021Z,100288.31
2023-02-15T02:02:09.154Z,100290.28
2023-02-15T02:04:41.253Z,100288.84
2023-02-15T02:07:09.539Z,100289.13
2023-02-15T02:09:38.870Z,100286.88
2023-02-15T02:12:06.196Z,100291.09
2023-02-15T02:14:33.620Z,100292.19
2023-02-15T02:17:23.027Z,100284.59
2023-02-15T02:19:57.525Z,100283.41
2023-02-15T02:22:39.555Z,100281.78
2023-02-15T02:25:31.697Z,100276.31
2023-02-15T02:28:20.286Z,100277.00
2023-02-15T02:31:09.694Z,100274.66
2023-02-15T02:33:48.688Z,100280.91
2023-02-15T02:36:26.599Z,100280.94
2023-02-15T02:39:07.527Z,100285.88
2023-02-15T02:41:46.700Z,100273.63
2023-02-15T02:44:25.693Z,100277.87
2023-02-15T02:46:58.574Z,100277.13
2023-02-15T02:49:34.517Z,100289.34
2023-02-15T02:52:40.992Z,100286.84
2023-02-15T02:55:13.560Z,100286.09
2023-02-15T02:57:49.108Z,100280.03
2023-02-15T03:00:16.735Z,100277.28
2023-02-15T03:02:46.178Z,100281.72
2023-02-15T03:05:17.152Z,100284.34
2023-02-15T03:07:49.414Z,100290.28
2023-02-15T03:10:19.180Z,100282.47
2023-02-15T03:12:46.546Z,100292.84
2023-02-15T03:15:51.127Z,100289.34
2023-02-15T03:18:24.288Z,100292.84
2023-02-15T03:20:52.483Z,100287.28
2023-02-15T03:23:23.465Z,100300.69
2023-02-15T03:25:53.630Z,100296.94
2023-02-15T03:28:28.789Z,100299.81
2023-02-15T03:31:01.114Z,100305.19
2023-02-15T03:33:29.139Z,100306.16
2023-02-15T03:36:02.228Z,100302.91
2023-02-15T03:39:06.033Z,100308.13
2023-02-15T03:41:41.548Z,100304.81
2023-02-15T03:44:32.787Z,100309.03
2023-02-15T03:47:18.911Z,100304.72
2023-02-15T03:49:54.917Z,100297.87
2023-02-15T03:52:22.959Z,100304.72
2023-02-15T03:54:50.754Z,100297.69
2023-02-15T03:57:40.202Z,100298.41
2023-02-15T04:00:31.338Z,100300.06
2023-02-15T04:03:10.794Z,100303.47
2023-02-15T04:05:38.643Z,100312.28
2023-02-15T04:08:06.161Z,100310.81
2023-02-15T04:10:51.682Z,100304.16
2023-02-15T04:13:31.394Z,100304.34
2023-02-15T04:16:05.104Z,100299.34
2023-02-15T04:19:01.063Z,100304.63
2023-02-15T04:21:48.954Z,100299.44
2023-02-15T04:24:35.811Z,100303.84
2023-02-15T04:27:04.152Z,100304.72
2023-02-15T04:29:32.292Z,100303.09
2023-02-15T04:32:01.092Z,100303.19
2023-02-15T04:34:28.282Z,100304.03
2023-02-15T04:36:55.745Z,100295.53
2023-02-15T04:39:22.975Z,100307.53
2023-02-15T04:41:50.082Z,100300.69
2023-02-15T04:44:17.466Z,100300.75
2023-02-15T04:46:44.550Z,100311.09
2023-02-15T04:49:11.674Z,100301.03
2023-02-15T04:51:39.077Z,100307.84
2023-02-15T04:54:06.194Z,100311.25
2023-02-15T04:56:35.069Z,100315.66
2023-02-15T04:59:02.437Z,100309.69
2023-02-15T05:01:29.488Z,100302.97
2023-02-15T05:03:56.603Z,100295.34
2023-02-15T05:06:24.129Z,100293.56
2023-02-15T05:08:51.492Z,100296.97
2023-02-15T05:11:18.698Z,100297.94
2023-02-15T05:13:46.154Z,100312.50
2023-02-15T05:16:13.302Z,100305.72
2023-02-15T05:18:40.438Z,100307.47
2023-02-15T05:21:07.914Z,100308.19
2023-02-15T05:23:35.207Z,100311.59
2023-02-15T05:26:21.158Z,100314.94
2023-02-15T05:28:48.492Z,100320.00
2023-02-15T05:31:18.590Z,100319.09
2023-02-15T05:33:46.331Z,100315.72
2023-02-15T05:36:13.887Z,100323.38
2023-02-15T05:38:41.000Z,100330.31
2023-02-15T05:41:09.427Z,100332.09
2023-02-15T05:43:37.092Z,100335.59
2023-02-15T05:46:05.158Z,100334.81
2023-02-15T05:48:32.975Z,100337.44
2023-02-15T05:51:16.935Z,100340.78
2023-02-15T05:53:44.195Z,100339.19
2023-02-15T05:56:12.939Z,100340.00
2023-02-15T05:58:41.636Z,100340.84
2023-02-15T06:01:16.332Z,100341.66
2023-02-15T06:03:44.191Z,100341.69
2023-02-15T06:06:11.782Z,100338.16
2023-02-15T06:08:39.255Z,100337.31
2023-02-15T06:11:07.550Z,100343.25
2023-02-15T06:13:38.026Z,100344.19
2023-02-15T06:16:06.951Z,100350.94
2023-02-15T06:18:36.187Z,100349.09
2023-02-15T06:21:03.595Z,100343.88
2023-02-15T06:23:30.779Z,100347.09
2023-02-15T06:25:58.198Z,100346.97
2023-02-15T06:28:26.557Z,100345.87
2023-02-15T06:30:53.925Z,100341.41
2023-02-15T06:33:21.434Z,100342.97
2023-02-15T06:35:48.531Z,100348.69
2023-02-15T06:38:15.655Z,100351.09
2023-02-15T06:40:43.090Z,100349.16
2023-02-15T06:43:10.258Z,100345.50
2023-02-15T06:45:37.267Z,100351.19
2023-02-15T06:48:07.834Z,100349.94
2023-02-15T06:50:35.445Z,100347.75
2023-02-15T06:53:02.763Z,100355.84
2023-02-15T06:55:30.232Z,100349.56
2023-02-15T06:57:57.347Z,100351.84
2023-02-15T07:00:25.125Z,100359.22
2023-02-15T07:02:56.711Z,100362.34
2023-02-15T07:05:24.763Z,100366.94
2023-02-15T07:07:52.020Z,100366.81
2023-02-15T07:10:19.595Z,100366.56
2023-02-15T07:12:47.096Z,100362.66
2023-02-15T07:15:16.714Z,100362.91
2023-02-15T07:17:44.998Z,100363.44
2023-02-15T07:20:17.831Z,100357.25
2023-02-15T07:22:45.634Z,100360.06
2023-02-15T07:25:13.379Z,100357.47
2023-02-15T07:27:41.014Z,100357.94
2023-02-15T07:30:11.473Z,100353.28
2023-02-15T07:32:58.632Z,100359.78
2023-02-15T07:35:26.551Z,100352.41
2023-02-15T07:37:54.154Z,100359.19
2023-02-15T07:40:24.257Z,100356.31
2023-02-15T07:42:54.285Z,100356.72
2023-02-15T07:45:23.271Z,100348.25
2023-02-15T07:47:50.471Z,100360.66
2023-02-15T07:50:17.994Z,100359.25
2023-02-15T07:52:45.927Z,100355.66
2023-02-15T07:55:13.948Z,100359.53
2023-02-15T07:57:45.824Z,100355.69
2023-02-15T08:00:15.048Z,100358.44
2023-02-15T08:02:42.797Z,100352.47
2023-02-15T08:05:09.930Z,100353.81
2023-02-15T08:07:37.060Z,100357.56
2023-02-15T08:10:05.020Z,100350.50
2023-02-15T08:12:32.188Z,100351.16
2023-02-15T08:14:59.601Z,100344.47
2023-02-15T08:17:29.282Z,100353.84
2023-02-15T08:19:56.311Z,100349.06
2023-02-15T08:22:23.430Z,100343.72
2023-02-15T08:24:51.239Z,100337.97
2023-02-15T08:27:18.301Z,100338.16
2023-02-15T08:29:45.327Z,100336.03
2023-02-15T08:32:13.986Z,100340.41
2023-02-15T08:34:42.955Z,100337.50
2023-02-15T08:37:10.432Z,100346.06
2023-02-15T08:39:38.020Z,100340.31
2023-02-15T08:42:05.328Z,100344.34
2023-02-15T08:44:32.490Z,100342.00
2023-02-15T08:47:04.505Z,100348.59
2023-02-15T08:49:31.839Z,100344.53
2023-02-15T08:52:00.729Z,100339.81
2023-02-15T08:54:28.454Z,100340.09
2023-02-15T08:56:55.595Z,100343.91
2023-02-15T08:59:24.123Z,100335.94
2023-02-15T09:01:52.721Z,100344.97
2023-02-15T09:04:20.762Z,100338.75
2023-02-15T09:06:49.494Z,100339.88
2023-02-15T09:09:18.259Z,100346.19
2023-02-15T09:11:47.805Z,100342.28
2023-02-15T09:14:17.837Z,100341.16
2023-02-15T09:16:49.504Z,100339.34
2023-02-15T09:19:18.444Z,100339.22
2023-02-15T09:21:46.067Z,100341.75
2023-02-15T09:24:15.565Z,100339.91
2023-02-15T09:26:46.220Z,100335.47
2023-02-15T09:29:14.630Z,100348.84
2023-02-15T09:31:47.301Z,100341.84
2023-02-15T09:34:17.616Z,100339.44
2023-02-15T09:36:45.233Z,100334.66
2023-02-15T09:39:25.951Z,100342.53
2023-02-15T09:41:53.644Z,100342.88
2023-02-15T09:44:45.483Z,100337.00
2023-02-15T09:47:18.882Z,100340.66
2023-02-15T09:50:04.893Z,100339.28
2023-02-15T09:52:41.725Z,100337.31
2023-02-15T09:55:26.920Z,100331.56
2023-02-15T09:58:21.607Z,100335.75
2023-02-15T10:01:02.185Z,100323.22
2023-02-15T10:03:38.916Z,100322.53
2023-02-15T10:06:32.208Z,100316.66
2023-02-15T10:09:18.667Z,100317.81
2023-02-15T10:12:06.695Z,100317.16
2023-02-15T10:14:38.829Z,100315.56
2023-02-15T10:17:08.919Z,100314.34
2023-02-15T10:20:05.833Z,100314.94
2023-02-15T10:22:45.147Z,100308.19
2023-02-15T10:25:47.982Z,100310.44
2023-02-15T10:28:21.156Z,100318.03
2023-02-15T10:30:51.629Z,100320.03
2023-02-15T10:33:37.839Z,100315.25
2023-02-15T10:36:40.230Z,100313.12
2023-02-15T10:39:31.710Z,100309.38
2023-02-15T10:42:14.294Z,100306.16
2023-02-15T10:45:05.488Z,100303.75
2023-02-15T10:47:51.452Z,100305.06
2023-02-15T10:50:30.158Z,100307.03
2023-02-15T10:53:12.645Z,100300.56
2023-02-15T10:55:39.676Z,100304.06
2023-02-15T10:58:25.840Z,100287.13
2023-02-15T11:01:09.000Z,100287.22
2023-02-15T11:04:08.418Z,100287.41
2023-02-15T11:06:37.571Z,100276.88
2023-02-15T11:09:10.729Z,100283.06
2023-02-15T11:11:41.526Z,100280.22
2023-02-15T11:14:37.399Z,100275.75
2023-02-15T11:17:09.953Z,100277.44
2023-02-15T11:19:54.348Z,100268.13
2023-02-15T11:22:21.536Z,100263.28
2023-02-15T11:38:59.391Z,100245.41
2023-02-15T11:41:30.581Z,100243.31
2023-02-15T11:44:27.429Z,100245.22
2023-02-15T11:46:54.918Z,100235.66
2023-02-15T11:49:23.755Z,100235.91
2023-02-15T11:51:54.544Z,100229.59
2023-02-15T11:54:28.112Z,100227.47
2023-02-15T11:56:57.746Z,100224.78
2023-02-15T11:59:35.607Z,100215.53
2023-02-15T12:02:02.724Z,100218.25
2023-02-15T12:04:40.588Z,100214.44
2023-02-15T12:07:34.012Z,100219.47
2023-02-15T12:10:21.020Z,100226.38
2023-02-15T12:12:48.154Z,100221.16
2023-02-15T12:15:15.613Z,100225.88
2023-02-15T12:17:54.383Z,100212.53
2023-02-15T12:20:26.976Z,100214.41
2023-02-15T12:23:03.042Z,100216.25
2023-02-15T12:25:37.196Z,100213.06
2023-02-15T12:28:06.167Z,100203.50
2023-02-15T12:30:36.944Z,100197.31
2023-02-15T12:33:09.213Z,100205.31
2023-02-15T12:35:37.303Z,100199.91
2023-02-15T12:38:06.923Z,100198.19
2023-02-15T12:40:35.214Z,100190.75
2023-02-15T12:43:09.540Z,100191.44
2023-02-15T12:45:38.323Z,100186.91
2023-02-15T12:48:17.942Z,100186.03
2023-02-15T12:50:46.949Z,100178.78
2023-02-15T12:53:16.204Z,100187.88
2023-02-15T12:56:08.028Z,100180.22
2023-02-15T12:58:42.315Z,100167.50
2023-02-15T13:01:14.483Z,100172.37
2023-02-15T13:04:05.887Z,100172.09
2023-02-15T13:06:37.297Z,100164.25
2023-02-15T13:09:33.341Z,100167.97
2023-02-15T13:12:19.789Z,100166.44
2023-02-15T13:14:51.860Z,100162.22
2023-02-15T13:17:32.100Z,100156.63
2023-02-15T13:20:08.568Z,100163.66
2023-02-15T13:22:43.884Z,100154.63
2023-02-15T13:25:19.832Z,100152.75
2023-02-15T13:27:49.639Z,100152.66
2023-02-15T13:30:27.316Z,100152.00
2023-02-15T13:33:01.645Z,100145.97
2023-02-15T13:35:38.218Z,100151.84
2023-02-15T13:38:47.444Z,100142.97
2023-02-15T13:41:18.870Z,100147.34
2023-02-15T13:43:51.868Z,100135.28
2023-02-15T13:46:38.333Z,100141.25
2023-02-15T13:49:34.184Z,100134.56
2023-02-15T13:52:09.822Z,100139.56
2023-02-15T13:54:48.933Z,100130.50
2023-02-15T13:57:47.495Z,100123.94
2023-02-15T14:00:17.627Z,100128.75
2023-02-15T14:02:47.373Z,100127.63
2023-02-15T14:05:30.069Z,100126.41
2023-02-15T14:08:13.100Z,100134.75
2023-02-15T14:11:01.733Z,100133.59
2023-02-15T14:13:42.350Z,100128.03
2023-02-15T14:16:18.621Z,100138.50
2023-02-15T14:18:51.143Z,100123.75
2023-02-15T14:21:33.087Z,100128.41
2023-02-15T14:24:22.270Z,100120.56
2023-02-15T14:27:11.987Z,100127.09
2023-02-15T14:30:05.014Z,100123.00
2023-02-15T14:32:44.203Z,100123.75
2023-02-15T14:35:19.805Z,100124.09
2023-02-15T14:38:14.886Z,100119.34
2023-02-15T14:41:03.166Z,100126.81
2023-02-15T14:43:45.822Z,100130.62
2023-02-15T14:46:26.884Z,100123.16
2023-02-15T14:48:56.212Z,100123.06
2023-02-15T14:51:43.740Z,100116.59
2023-02-15T14:54:12.119Z,100115.25
2023-02-15T14:56:42.157Z,100120.06
2023-02-15T14:59:23.674Z,100112.59
2023-02-15T15:02:07.392Z,100112.13
2023-02-15T15:04:38.285Z,100101.44
2023-02-15T15:07:25.461Z,100101.81
2023-02-15T15:10:28.181Z,100103.34
2023-02-15T15:12:57.024Z,100097.56
2023-02-15T15:15:33.005Z,100098.34
2023-02-15T15:18:03.622Z,100098.72
2023-02-15T15:20:49.041Z,100100.94
2023-02-15T15:23:17.601Z,100103.41
2023-02-15T15:26:26.531Z,100093.59
2023-02-15T15:28:55.112Z,100095.13
2023-02-15T15:31:28.119Z,100090.22
2023-02-15T15:34:15.323Z,100090.16
2023-02-15T15:36:45.334Z,100095.88
2023-02-15T15:39:37.245Z,100097.31
2023-02-15T15:42:21.210Z,100089.47
2023-02-15T15:44:51.477Z,100097.44
2023-02-15T15:47:56.146Z,100092.09
2023-02-15T15:50:32.969Z,100091.78
2023-02-15T15:53:01.591Z,100084.31
2023-02-15T15:55:33.188Z,100086.88
2023-02-15T15:58:03.698Z,100088.56
2023-02-15T16:00:46.002Z,100084.03
2023-02-15T16:03:22.131Z,100080.66
2023-02-15T16:05:53.875Z,100088.13
2023-02-15T16:08:34.706Z,100086.28
2023-02-15T16:11:12.174Z,100076.75
2023-02-15T16:13:42.022Z,100079.91
2023-02-15T16:16:09.342Z,100076.78
2023-02-15T16:18:39.860Z,100080.53
2023-02-15T16:21:07.285Z,100077.47
2023-02-15T16:23:37.289Z,100082.25
2023-02-15T16:26:16.184Z,100082.44
2023-02-15T16:28:56.140Z,100084.81
2023-02-15T16:31:23.666Z,100084.22
2023-02-15T16:33:55.134Z,100082.00
2023-02-15T16:36:22.113Z,100083.12
2023-02-15T16:38:52.148Z,100085.25
2023-02-15T16:41:26.375Z,100093.25
2023-02-15T16:43:54.271Z,100089.97
2023-02-15T16:46:25.490Z,100085.81
2023-02-15T16:48:54.592Z,100080.87
2023-02-15T16:51:28.584Z,100083.63
2023-02-15T16:53:57.052Z,100082.09
2023-02-15T16:56:33.787Z,100079.62
2023-02-15T16:59:01.558Z,100085.16
2023-02-15T17:01:31.588Z,100092.22
2023-02-15T17:04:40.238Z,100084.78
2023-02-15T17:07:21.448Z,100090.94
2023-02-15T17:09:57.137Z,100090.34
2023-02-15T17:12:56.294Z,100092.56
2023-02-15T17:15:37.018Z,100097.19
2023-02-15T17:18:06.195Z,100086.22
2023-02-15T17:20:37.284Z,100094.34
2023-02-15T17:23:05.524Z,100094.63
2023-02-15T17:25:39.102Z,100093.34
2023-02-15T17:28:15.981Z,100092.63
2023-02-15T17:30:47.195Z,100088.69
2023-02-15T17:33:30.096Z,100088.94
2023-02-15T17:36:20.396Z,100085.75
2023-02-15T17:39:21.301Z,100085.19
2023-02-15T17:41:48.501Z,100088.09
2023-02-15T17:44:16.457Z,100084.72
2023-02-15T17:46:44.749Z,100088.28
2023-02-15T17:49:27.765Z,100082.47
2023-02-15T17:51:55.268Z,100080.06
2023-02-15T17:54:40.737Z,100079.38
2023-02-15T17:57:14.223Z,100080.53
2023-02-15T18:00:00.876Z,100086.75
2023-02-15T18:02:51.882Z,100083.38
2023-02-15T18:05:38.540Z,100086.88
2023-02-15T18:08:37.007Z,100079.41
2023-02-15T18:11:23.741Z,100082.97
2023-02-15T18:13:50.995Z,100074.63
2023-02-15T18:16:25.058Z,100075.66
2023-02-15T18:18:52.525Z,100080.03
2023-02-15T18:21:20.561Z,100076.69
2023-02-15T18:23:52.894Z,100069.91
2023-02-15T18:26:27.128Z,100068.19
2023-02-15T18:28:54.983Z,100076.88
2023-02-15T18:31:23.059Z,100064.13
2023-02-15T18:33:59.759Z,100063.53
2023-02-15T18:36:30.412Z,100061.91
2023-02-15T18:38:58.221Z,100068.06
2023-02-15T18:41:25.566Z,100070.72
2023-02-15T18:43:55.493Z,100066.59
2023-02-15T18:46:23.284Z,100072.69
2023-02-15T18:48:50.365Z,100070.19
2023-02-15T18:51:22.628Z,100073.69
2023-02-15T18:53:52.463Z,100072.91
2023-02-15T18:56:22.133Z,100073.00
2023-02-15T18:58:49.336Z,100071.37
2023-02-15T19:01:19.449Z,100075.69
2023-02-15T19:03:48.470Z,100071.37
2023-02-15T19:06:18.059Z,100077.47
2023-02-15T19:08:52.399Z,100077.44
2023-02-15T19:11:23.199Z,100069.72
2023-02-15T19:13:51.777Z,100074.00
2023-02-15T19:16:27.384Z,100070.50
2023-02-15T19:18:55.052Z,100070.59
2023-02-15T19:21:23.198Z,100073.31
2023-02-15T19:24:01.146Z,100065.62
2023-02-15T19:26:44.643Z,100063.94
2023-02-15T19:29:14.278Z,100066.69
2023-02-15T19:31:42.375Z,100063.31
2023-02-15T19:34:17.498Z,100069.19
2023-02-15T19:36:49.442Z,100073.47
2023-02-15T19:39:29.245Z,100073.47
2023-02-15T19:41:56.741Z,100076.12
2023-02-15T19:44:23.802Z,100077.00
2023-02-15T19:46:52.270Z,100067.53
2023-02-15T19:49:22.297Z,100070.34
2023-02-15T19:51:49.404Z,100069.56
2023-02-15T19:54:44.606Z,100073.94
2023-02-15T19:57:13.780Z,100062.91
2023-02-15T19:59:43.714Z,100064.69
2023-02-15T20:02:20.163Z,100063.06
2023-02-15T20:04:47.950Z,100059.62
2023-02-15T20:07:38.275Z,100059.62
2023-02-15T20:10:17.614Z,100062.12
2023-02-15T20:12:45.243Z,100058.78
2023-02-15T20:15:29.936Z,100066.66
2023-02-15T20:17:57.409Z,100055.72
2023-02-15T20:20:30.623Z,100053.16
2023-02-15T20:22:57.821Z,100055.81
2023-02-15T20:25:27.540Z,100057.63
2023-02-15T20:27:55.358Z,100054.34
2023-02-15T20:30:27.936Z,100048.34
2023-02-15T20:32:55.620Z,100052.72
2023-02-15T20:35:24.831Z,100050.84
2023-02-15T20:37:53.893Z,100055.97
2023-02-15T20:40:26.880Z,100053.16
2023-02-15T20:42:54.392Z,100060.22
2023-02-15T20:45:24.567Z,100065.25
2023-02-15T20:47:52.744Z,100048.00
2023-02-15T20:50:29.071Z,100058.13
2023-02-15T20:52:58.279Z,100059.88
2023-02-15T20:55:32.330Z,100044.66
2023-02-15T20:57:59.732Z,100043.91
2023-02-15T21:00:29.194Z,100043.16
2023-02-15T21:02:58.511Z,100041.53
2023-02-15T21:05:28.521Z,100045.81
2023-02-15T21:07:56.110Z,100050.19
2023-02-15T21:10:26.073Z,100046.91
2023-02-15T21:12:53.768Z,100045.25
2023-02-15T21:15:33.070Z,100047.75
2023-02-15T21:18:22.229Z,100046.78
2023-02-15T21:20:53.158Z,100046.72
2023-02-15T21:23:24.020Z,100044.94
2023-02-15T21:25:51.459Z,100038.22
2023-02-15T21:28:21.021Z,100037.47
2023-02-15T21:30:49.721Z,100038.41
2023-02-15T21:33:16.959Z,100037.59
2023-02-15T21:35:45.137Z,100030.66
2023-02-15T21:38:17.355Z,100041.03
2023-02-15T21:40:44.777Z,100038.44
2023-02-15T21:43:35.024Z,100038.44
2023-02-15T21:46:31.022Z,100040.87
2023-02-15T21:48:58.103Z,100037.47
2023-02-15T21:51:44.392Z,100038.38
2023-02-15T21:54:15.230Z,100042.66
2023-02-15T21:56:42.801Z,100032.53
2023-02-15T21:59:14.335Z,100030.00
2023-02-15T22:01:45.475Z,100030.03
2023-02-15T22:04:14.981Z,100034.28
2023-02-15T22:06:42.175Z,100030.84
2023-02-15T22:09:17.671Z,100027.28
2023-02-15T22:11:45.214Z,100033.19
2023-02-15T22:14:41.872Z,100040.09
2023-02-15T22:17:14.735Z,100030.84
2023-02-15T22:19:42.763Z,100032.66
2023-02-15T22:22:10.961Z,100034.41
2023-02-15T22:24:38.309Z,100034.41
2023-02-15T22:27:06.486Z,100029.34
2023-02-15T22:29:34.073Z,100026.00
2023-02-15T22:32:01.287Z,100031.19
2023-02-15T22:34:31.953Z,100032.97
2023-02-15T22:36:59.373Z,100034.78
2023-02-15T22:39:26.441Z,100041.72
2023-02-15T22:41:53.677Z,100043.56
2023-02-15T22:44:27.270Z,100047.84
2023-02-15T22:46:54.549Z,100043.63
2023-02-15T22:49:21.877Z,100046.25
2023-02-15T22:51:49.768Z,100038.53
2023-02-15T22:54:17.797Z,100038.53
2023-02-15T22:56:52.260Z,100042.81
2023-02-15T22:59:26.129Z,100041.09
2023-02-15T23:01:53.380Z,100040.28
2023-02-15T23:04:24.520Z,100030.78
2023-02-15T23:06:53.404Z,100026.47
2023-02-15T23:09:21.184Z,100036.78
2023-02-15T23:11:49.470Z,100036.00
2023-02-15T23:14:24.444Z,100035.19
2023-02-15T23:16:52.012Z,100031.94
2023-02-15T23:19:19.343Z,100031.94
2023-02-15T23:21:46.472Z,100033.56
2023-02-15T23:24:26.858Z,100029.34
2023-02-15T23:26:54.129Z,100028.53
2023-02-15T23:29:23.341Z,100025.19
2023-02-15T23:31:52.416Z,100025.16
2023-02-15T23:34:29.280Z,100020.06
2023-02-15T23:36:57.058Z,100029.59
2023-02-15T23:39:45.948Z,100022.81
2023-02-15T23:42:17.515Z,100027.06
2023-02-15T23:44:45.678Z,100020.16
2023-02-15T23:47:49.883Z,100014.09
2023-02-15T23:50:29.271Z,100021.72
2023-02-15T23:52:57.568Z,100014.75
2023-02-15T23:55:35.470Z,100007.00
2023-02-15T23:58:04.141Z,100006.94
